createdAt,value
2018-06-19T00:01:09.260Z,22.75
2018-06-19T00:02:19.345Z,22.66
2018-06-19T00:03:29.180Z,22.59
2018-06-19T00:04:39.266Z,22.75
2018-06-19T00:05:49.343Z,22.67
2018-06-19T00:06:58.945Z,22.63
2018-06-19T00:08:08.763Z,22.59
2018-06-19T00:09:18.834Z,22.55
2018-06-19T00:10:28.910Z,22.61
2018-06-19T00:11:38.996Z,22.6
2018-06-19T00:12:49.086Z,22.61
2018-06-19T00:13:59.165Z,22.6
2018-06-19T00:15:08.968Z,22.55
2018-06-19T00:16:18.822Z,22.57
2018-06-19T00:17:28.366Z,22.55
2018-06-19T00:18:38.183Z,22.57
2018-06-19T00:19:48.001Z,22.57
2018-06-19T00:20:58.079Z,22.49
2018-06-19T00:22:07.883Z,22.48
2018-06-19T00:23:18.247Z,22.52
2018-06-19T00:24:28.329Z,22.49
2018-06-19T00:25:38.402Z,22.45
2018-06-19T00:26:48.493Z,22.44
2018-06-19T00:27:58.573Z,22.42
2018-06-19T00:29:08.653Z,22.39
2018-06-19T00:30:18.462Z,22.49
2018-06-19T00:31:28.546Z,22.42
2018-06-19T00:32:38.719Z,22.29
2018-06-19T00:33:48.549Z,22.38
2018-06-19T00:34:58.102Z,22.44
2018-06-19T00:36:08.251Z,22.29
2018-06-19T00:37:18.980Z,22.31
2018-06-19T00:38:29.121Z,22.42
2018-06-19T00:39:38.938Z,22.29
2018-06-19T00:40:49.032Z,22.36
2018-06-19T00:41:59.160Z,22.26
2018-06-19T00:43:09.232Z,22.29
2018-06-19T00:44:19.320Z,22.31
2018-06-19T00:45:29.392Z,22.23
2018-06-19T00:46:39.209Z,22.27
2018-06-19T00:47:49.034Z,22.22
2018-06-19T00:48:59.127Z,22.22
2018-06-19T00:50:08.952Z,22.16
2018-06-19T00:51:19.026Z,22.29
2018-06-19T00:52:29.103Z,22.24
2018-06-19T00:53:38.920Z,22.15
2018-06-19T00:54:48.749Z,22.22
2018-06-19T00:55:58.831Z,22.15
2018-06-19T00:57:08.905Z,22.2
2018-06-19T00:58:18.731Z,22.14
2018-06-19T00:59:28.813Z,22.11
2018-06-19T01:00:38.885Z,22.12
2018-06-19T01:01:48.723Z,22.11
2018-06-19T01:02:58.797Z,22.14
2018-06-19T01:04:08.888Z,22.07
2018-06-19T01:05:18.961Z,22.02
2018-06-19T01:06:29.035Z,21.94
2018-06-19T01:07:39.149Z,22.04
2018-06-19T01:08:48.959Z,21.96
2018-06-19T01:09:58.817Z,22.02
2018-06-19T01:11:08.700Z,21.96
2018-06-19T01:12:18.525Z,21.93
2018-06-19T01:13:28.620Z,21.94
2018-06-19T01:14:38.453Z,21.94
2018-06-19T01:15:48.542Z,21.94
2018-06-19T01:16:58.618Z,21.96
2018-06-19T01:18:08.436Z,21.93
2018-06-19T01:19:18.512Z,21.92
2018-06-19T01:20:28.331Z,21.86
2018-06-19T01:21:38.407Z,21.9
2018-06-19T01:22:48.464Z,21.82
2018-06-19T01:23:58.543Z,21.85
2018-06-19T01:25:08.642Z,21.89
2018-06-19T01:26:18.727Z,21.83
2018-06-19T01:27:28.812Z,21.73
2018-06-19T01:28:39.000Z,21.74
2018-06-19T01:29:49.343Z,21.74
2018-06-19T01:30:59.185Z,21.74
2018-06-19T01:32:09.251Z,21.74
2018-06-19T01:33:19.340Z,21.7
2018-06-19T01:34:29.411Z,21.71
2018-06-19T01:35:39.502Z,21.7
2018-06-19T01:36:49.596Z,21.73
2018-06-19T01:37:59.885Z,21.68
2018-06-19T01:39:10.154Z,21.61
2018-06-19T01:40:20.251Z,21.58
2018-06-19T01:41:30.347Z,21.62
2018-06-19T01:42:40.177Z,21.59
2018-06-19T01:43:50.247Z,21.62
2018-06-19T01:45:00.324Z,21.61
2018-06-19T01:46:10.431Z,21.59
2018-06-19T01:47:20.217Z,21.59
2018-06-19T01:48:30.288Z,21.52
2018-06-19T01:49:40.356Z,21.52
2018-06-19T01:50:50.439Z,21.49
2018-06-19T01:52:00.558Z,21.55
2018-06-19T01:53:10.647Z,21.53
2018-06-19T01:54:20.763Z,21.52
2018-06-19T01:55:30.334Z,21.52
2018-06-19T01:56:40.413Z,21.56
2018-06-19T01:57:50.174Z,21.53
2018-06-19T01:59:00.245Z,21.53
2018-06-19T02:00:10.327Z,21.53
2018-06-19T02:01:20.408Z,21.58
2018-06-19T02:02:30.485Z,21.49
2018-06-19T02:03:40.644Z,21.53
2018-06-19T02:04:50.722Z,21.38
2018-06-19T02:06:00.887Z,21.43
2018-06-19T02:07:10.954Z,21.41
2018-06-19T02:08:20.771Z,21.36
2018-06-19T02:09:30.864Z,21.45
2018-06-19T02:10:40.699Z,21.46
2018-06-19T02:11:50.781Z,21.4
2018-06-19T02:13:00.861Z,21.4
2018-06-19T02:14:10.674Z,21.37
2018-06-19T02:15:20.513Z,21.4
2018-06-19T02:16:30.599Z,21.37
2018-06-19T02:17:40.674Z,21.23
2018-06-19T02:18:50.741Z,21.21
2018-06-19T02:20:00.824Z,21.38
2018-06-19T02:21:10.900Z,21.36
2018-06-19T02:22:20.989Z,21.22
2018-06-19T02:23:30.818Z,21.25
2018-06-19T02:24:40.929Z,21.23
2018-06-19T02:25:50.737Z,21.23
2018-06-19T02:27:00.808Z,21.21
2018-06-19T02:28:10.617Z,21.28
2018-06-19T02:29:20.439Z,21.19
2018-06-19T02:30:30.254Z,21.21
2018-06-19T02:31:40.332Z,21.18
2018-06-19T02:32:50.406Z,21.23
2018-06-19T02:34:00.496Z,21.19
2018-06-19T02:35:10.302Z,21.15
2018-06-19T02:36:20.405Z,21.22
2018-06-19T02:37:30.489Z,21.15
2018-06-19T02:38:40.611Z,21.19
2018-06-19T02:39:50.689Z,21.18
2018-06-19T02:41:00.784Z,21.19
2018-06-19T02:42:10.869Z,21.18
2018-06-19T02:43:21.035Z,21.23
2018-06-19T02:44:31.224Z,21.16
2018-06-19T02:45:41.294Z,21.18
2018-06-19T02:46:51.371Z,21.18
2018-06-19T02:48:01.469Z,21.11
2018-06-19T02:49:11.572Z,21.19
2018-06-19T02:50:21.438Z,21.21
2018-06-19T02:51:31.524Z,21.04
2018-06-19T02:52:41.613Z,21.09
2018-06-19T02:53:51.698Z,21.19
2018-06-19T02:55:01.531Z,21.21
2018-06-19T02:56:11.619Z,21.11
2018-06-19T02:57:21.461Z,21.09
2018-06-19T02:58:31.676Z,21.21
2018-06-19T02:59:41.920Z,21.12
2018-06-19T03:00:51.753Z,21.09
2018-06-19T03:02:01.892Z,21.11
2018-06-19T03:34:38.541Z,19.56
2018-06-19T03:35:48.433Z,19.7
2018-06-19T03:36:58.515Z,19.65
2018-06-19T03:38:08.594Z,19.63
2018-06-19T03:39:18.408Z,19.63
2018-06-19T03:40:28.212Z,19.71
2018-06-19T03:41:38.302Z,19.79
2018-06-19T03:42:48.123Z,19.86
2018-06-19T03:43:57.677Z,19.97
2018-06-19T03:45:07.750Z,20.07
2018-06-19T03:46:17.893Z,20.08
2018-06-19T03:47:27.976Z,20.26
2018-06-19T03:48:37.796Z,20.29
2018-06-19T03:49:47.869Z,20.42
2018-06-19T03:50:57.957Z,20.6
2018-06-19T03:52:08.034Z,20.81
2018-06-19T03:53:18.135Z,21.11
2018-06-19T03:54:28.219Z,21.22
2018-06-19T03:55:38.041Z,21.28
2018-06-19T03:56:48.554Z,21.36
2018-06-19T03:57:58.699Z,21.36
2018-06-19T03:59:08.514Z,21.34
2018-06-19T04:00:18.588Z,21.38
2018-06-19T04:01:28.780Z,21.41
2018-06-19T04:02:38.870Z,21.45
2018-06-19T04:03:49.239Z,21.51
2018-06-19T04:04:59.299Z,21.45
2018-06-19T04:06:09.144Z,21.53
2018-06-19T04:07:19.234Z,21.49
2018-06-19T04:08:29.097Z,21.61
2018-06-19T04:09:39.172Z,21.7
2018-06-19T04:10:49.265Z,21.7
2018-06-19T04:11:59.353Z,21.71
2018-06-19T04:13:09.430Z,21.74
2018-06-19T04:14:19.515Z,21.8
2018-06-19T04:15:29.578Z,21.85
2018-06-19T04:16:39.661Z,21.89
2018-06-19T04:17:49.614Z,22.07
2018-06-19T04:18:59.444Z,23.21
2018-06-19T04:20:09.521Z,25.6
2018-06-19T04:21:19.634Z,27.71
2018-06-19T04:22:29.700Z,29.35
2018-06-19T04:23:39.770Z,30.52
2018-06-19T04:24:49.855Z,31.6
2018-06-19T04:25:59.928Z,32.53
2018-06-19T04:27:10.062Z,33.09
2018-06-19T04:28:20.127Z,33.71
2018-06-19T04:29:30.189Z,34.32
2018-06-19T04:30:40.274Z,34.64
2018-06-19T04:31:50.093Z,35.15
2018-06-19T04:33:00.193Z,35.47
2018-06-19T04:34:10.286Z,35.77
2018-06-19T04:35:20.365Z,36.08
2018-06-19T04:36:30.186Z,36.32
2018-06-19T04:37:40.282Z,36.41
2018-06-19T04:38:50.103Z,36.53
2018-06-19T04:40:00.190Z,36.67
2018-06-19T04:41:10.274Z,36.86
2018-06-19T04:42:20.346Z,36.74
2018-06-19T04:43:30.420Z,36.84
2018-06-19T04:44:40.556Z,37.04
2018-06-19T04:45:50.660Z,37.18
2018-06-19T04:47:00.736Z,37.3
2018-06-19T04:48:10.566Z,37.39
2018-06-19T04:49:20.401Z,37.45
2018-06-19T04:50:30.593Z,37.41
2018-06-19T04:51:40.707Z,37.54
2018-06-19T04:52:50.798Z,37.53
2018-06-19T04:54:00.890Z,37.53
2018-06-19T04:55:10.749Z,37.59
2018-06-19T04:56:20.837Z,37.8
2018-06-19T04:57:30.662Z,37.87
2018-06-19T04:58:40.742Z,37.99
2018-06-19T04:59:50.842Z,38.02
2018-06-19T05:01:00.969Z,38.03
2018-06-19T05:02:10.851Z,37.98
2018-06-19T05:03:20.943Z,38.05
2018-06-19T05:04:31.047Z,38.08
2018-06-19T05:05:40.859Z,38.24
2018-06-19T05:06:50.939Z,38.36
2018-06-19T05:08:00.820Z,38.43
2018-06-19T05:09:10.923Z,38.36
2018-06-19T05:10:21.290Z,38.24
2018-06-19T05:11:31.397Z,38.17
2018-06-19T05:12:41.468Z,38.17
2018-06-19T05:13:51.557Z,37.99
2018-06-19T05:15:01.625Z,37.87
2018-06-19T05:16:11.484Z,37.84
2018-06-19T05:17:21.663Z,37.72
2018-06-19T05:18:31.760Z,37.64
2018-06-19T05:19:41.844Z,37.62
2018-06-19T05:20:51.684Z,37.59
2018-06-19T05:22:01.759Z,37.59
2018-06-19T05:23:11.828Z,37.59
2018-06-19T05:24:21.925Z,37.62
2018-06-19T05:25:31.727Z,37.76
2018-06-19T05:26:41.794Z,37.8
2018-06-19T05:27:51.868Z,37.81
2018-06-19T05:29:01.694Z,37.87
2018-06-19T05:30:11.523Z,37.81
2018-06-19T05:31:21.351Z,37.68
2018-06-19T05:32:31.427Z,37.54
2018-06-19T05:33:41.514Z,37.48
2018-06-19T05:34:51.399Z,37.42
2018-06-19T05:36:01.533Z,37.37
2018-06-19T05:37:11.398Z,37.26
2018-06-19T05:38:21.489Z,37.22
2018-06-19T05:39:31.575Z,37.29
2018-06-19T05:40:41.658Z,37.11
2018-06-19T05:41:51.741Z,37.05
2018-06-19T05:43:01.341Z,36.99
2018-06-19T05:44:11.168Z,36.96
2018-06-19T05:45:20.995Z,36.88
2018-06-19T05:46:30.807Z,36.81
2018-06-19T05:47:40.958Z,36.78
2018-06-19T05:48:50.766Z,36.61
2018-06-19T05:50:00.591Z,36.43
2018-06-19T05:51:10.682Z,36.37
2018-06-19T05:52:20.793Z,36.26
2018-06-19T05:53:30.890Z,36.08
2018-06-19T05:54:40.962Z,36.05
2018-06-19T05:55:51.076Z,35.83
2018-06-19T05:57:00.897Z,35.65
2018-06-19T05:58:10.998Z,35.52
2018-06-19T05:59:20.832Z,35.52
2018-06-19T06:00:30.925Z,35.38
2018-06-19T06:01:41.054Z,35.28
2018-06-19T06:02:51.130Z,35.26
2018-06-19T06:04:01.211Z,35.06
2018-06-19T06:05:11.045Z,35.05
2018-06-19T06:06:21.135Z,34.99
2018-06-19T06:07:31.233Z,34.9
2018-06-19T06:08:41.061Z,34.83
2018-06-19T06:09:50.877Z,34.66
2018-06-19T06:11:00.850Z,34.58
2018-06-19T06:12:11.027Z,34.39
2018-06-19T06:13:20.856Z,34.39
2018-06-19T06:14:30.941Z,34.36
2018-06-19T06:15:41.205Z,34.15
2018-06-19T06:16:51.290Z,33.99
2018-06-19T06:18:01.160Z,33.93
2018-06-19T06:19:11.475Z,33.78
2018-06-19T06:20:21.554Z,33.62
2018-06-19T06:21:31.642Z,33.46
2018-06-19T06:22:41.723Z,33.43
2018-06-19T06:23:51.554Z,33.18
2018-06-19T06:25:01.657Z,33.06
2018-06-19T06:26:11.747Z,32.9
2018-06-19T06:27:21.827Z,32.76
2018-06-19T06:28:31.901Z,32.76
2018-06-19T06:29:42.033Z,32.75
2018-06-19T06:30:51.848Z,32.72
2018-06-19T06:32:01.972Z,32.57
2018-06-19T06:33:12.060Z,32.43
2018-06-19T06:34:22.157Z,32.28
2018-06-19T06:35:32.039Z,32.15
2018-06-19T06:36:42.126Z,32.1
2018-06-19T06:37:52.211Z,32.01
2018-06-19T06:39:02.035Z,31.9
2018-06-19T06:40:12.108Z,31.95
2018-06-19T06:41:21.927Z,31.82
2018-06-19T06:42:32.027Z,31.74
2018-06-19T06:43:42.097Z,31.71
2018-06-19T06:44:52.519Z,31.63
2018-06-19T06:46:02.906Z,31.65
2018-06-19T06:47:12.741Z,31.52
2018-06-19T06:48:22.310Z,31.5
2018-06-19T06:49:32.396Z,31.44
2018-06-19T06:50:41.940Z,31.28
2018-06-19T06:51:52.040Z,31.18
2018-06-19T06:53:02.153Z,31.13
2018-06-19T06:54:11.975Z,30.99
2018-06-19T06:55:22.049Z,30.94
2018-06-19T06:56:32.130Z,30.75
2018-06-19T06:57:42.220Z,30.69
2018-06-19T06:58:52.288Z,30.59
2018-06-19T07:00:02.107Z,30.4
2018-06-19T07:01:12.326Z,30.42
2018-06-19T07:02:22.602Z,30.34
2018-06-19T07:03:32.700Z,30.39
2018-06-19T07:04:42.522Z,30.44
2018-06-19T07:05:52.604Z,30.37
2018-06-19T07:07:02.702Z,30.4
2018-06-19T07:08:13.051Z,30.28
2018-06-19T07:09:23.144Z,30.13
2018-06-19T07:10:32.975Z,30
2018-06-19T07:11:43.066Z,29.77
2018-06-19T07:12:53.206Z,29.66
2018-06-19T07:14:03.296Z,29.57
2018-06-19T07:15:13.390Z,29.5
2018-06-19T07:16:23.483Z,29.38
2018-06-19T07:17:33.580Z,29.15
2018-06-19T07:18:43.662Z,29.01
2018-06-19T07:19:53.788Z,28.82
2018-06-19T07:21:03.910Z,28.85
2018-06-19T07:22:14.044Z,28.85
2018-06-19T07:23:24.137Z,28.88
2018-06-19T07:24:34.225Z,28.85
2018-06-19T07:25:44.323Z,28.85
2018-06-19T07:26:54.515Z,28.88
2018-06-19T07:28:04.591Z,28.88
2018-06-19T07:29:14.165Z,28.83
2018-06-19T07:30:24.233Z,28.9
2018-06-19T07:31:34.335Z,28.88
2018-06-19T07:32:44.447Z,28.91
2018-06-19T07:33:54.513Z,28.88
2018-06-19T07:35:04.330Z,28.92
2018-06-19T07:36:14.425Z,28.98
2018-06-19T07:37:24.514Z,28.98
2018-06-19T07:38:34.584Z,29.01
2018-06-19T07:39:44.690Z,28.95
2018-06-19T07:40:54.272Z,29.05
2018-06-19T07:42:04.359Z,29.08
2018-06-19T07:43:14.452Z,29.06
2018-06-19T07:44:24.632Z,29.03
2018-06-19T07:45:34.721Z,29.06
2018-06-19T07:46:44.819Z,29.05
2018-06-19T07:47:54.647Z,29.03
2018-06-19T07:49:04.835Z,29.11
2018-06-19T07:50:14.941Z,29.15
2018-06-19T07:51:25.037Z,29.26
2018-06-19T07:52:34.854Z,29.26
2018-06-19T07:53:44.946Z,29.29
2018-06-19T07:54:55.279Z,29.43
2018-06-19T07:56:05.380Z,29.33
2018-06-19T07:57:15.473Z,29.43
2018-06-19T07:58:25.474Z,29.47
2018-06-19T07:59:35.626Z,29.42
2018-06-19T08:00:45.745Z,29.42
2018-06-19T08:01:55.840Z,29.52
2018-06-19T08:03:05.939Z,29.58
2018-06-19T08:04:16.028Z,29.67
2018-06-19T08:05:26.106Z,29.75
2018-06-19T08:06:36.203Z,29.76
2018-06-19T08:07:46.332Z,29.77
2018-06-19T08:08:56.420Z,29.92
2018-06-19T08:10:06.719Z,29.97
2018-06-19T08:11:16.544Z,29.98
2018-06-19T08:12:26.374Z,30.13
2018-06-19T08:13:36.749Z,30.1
2018-06-19T08:14:46.863Z,30.26
2018-06-19T08:15:56.690Z,30.42
2018-06-19T08:17:06.773Z,30.49
2018-06-19T08:18:17.180Z,30.66
2018-06-19T08:19:27.214Z,30.85
2018-06-19T08:20:37.320Z,31.01
2018-06-19T08:21:47.428Z,31.43
2018-06-19T08:22:57.614Z,31.78
2018-06-19T08:24:07.709Z,32.12
2018-06-19T08:25:17.811Z,32.42
2018-06-19T08:26:27.912Z,32.96
2018-06-19T08:27:38.012Z,33.28
2018-06-19T08:28:48.155Z,33.5
2018-06-19T08:29:58.256Z,33.58
2018-06-19T08:31:08.552Z,33.69
2018-06-19T08:32:18.642Z,33.56
2018-06-19T08:33:28.492Z,33.59
2018-06-19T08:34:38.572Z,33.41
2018-06-19T08:35:48.652Z,33.16
2018-06-19T08:36:58.727Z,33.09
2018-06-19T08:38:08.848Z,32.94
2018-06-19T08:39:18.925Z,32.81
2018-06-19T08:40:29.069Z,32.67
2018-06-19T08:41:39.402Z,32.76
2018-06-19T08:42:49.614Z,33.09
2018-06-19T08:43:59.713Z,33.29
2018-06-19T08:45:09.543Z,33.52
2018-06-19T08:46:19.673Z,33.73
2018-06-19T08:47:29.512Z,34.02
2018-06-19T08:48:39.608Z,34.22
2018-06-19T08:49:49.695Z,34.29
2018-06-19T08:50:59.766Z,34.63
2018-06-19T08:52:09.598Z,34.43
2018-06-19T08:53:19.679Z,34.39
2018-06-19T08:54:29.878Z,34.33
2018-06-19T08:55:39.718Z,34.14
2018-06-19T08:56:49.535Z,34.02
2018-06-19T08:57:59.615Z,33.92
2018-06-19T08:59:09.450Z,34.06
2018-06-19T09:00:19.388Z,34.08
2018-06-19T09:01:29.783Z,33.89
2018-06-19T09:02:39.877Z,33.53
2018-06-19T09:03:49.700Z,33.46
2018-06-19T09:04:59.778Z,33.68
2018-06-19T09:06:09.602Z,34.02
2018-06-19T09:07:19.432Z,34.3
2018-06-19T09:08:29.514Z,34.67
2018-06-19T09:09:39.316Z,34.94
2018-06-19T09:10:49.404Z,35.12
2018-06-19T09:11:59.220Z,35.06
2018-06-19T09:13:09.335Z,34.64
2018-06-19T09:14:18.922Z,34.4
2018-06-19T09:15:29.022Z,34.22
2018-06-19T09:16:39.181Z,34.05
2018-06-19T09:17:49.314Z,33.85
2018-06-19T09:19:02.916Z,33.55
2018-06-19T09:20:17.921Z,33.4
2018-06-19T09:21:30.443Z,33.24
2018-06-19T09:22:44.409Z,33.18
2018-06-19T09:23:59.854Z,33.16
2018-06-19T09:25:12.318Z,33.46
2018-06-19T09:26:22.543Z,33.68
2018-06-19T09:27:32.695Z,34.06
2018-06-19T09:28:42.892Z,34.21
2018-06-19T09:29:52.904Z,34.4
2018-06-19T09:31:02.777Z,34.58
2018-06-19T09:32:12.731Z,34.78
2018-06-19T09:33:22.787Z,34.93
2018-06-19T09:34:33.024Z,35.24
2018-06-19T09:35:43.243Z,35.26
2018-06-19T09:36:53.464Z,34.91
2018-06-19T09:38:03.589Z,34.78
2018-06-19T09:39:13.764Z,34.83
2018-06-19T09:40:23.936Z,34.52
2018-06-19T09:41:33.799Z,34.46
2018-06-19T09:42:44.229Z,34.51
2018-06-19T09:43:54.387Z,34.58
2018-06-19T09:45:04.241Z,34.64
2018-06-19T09:46:14.360Z,34.97
2018-06-19T09:47:24.210Z,35.33
2018-06-19T09:48:34.307Z,35.5
2018-06-19T09:49:44.402Z,35.6
2018-06-19T09:50:54.489Z,35.94
2018-06-19T09:52:04.589Z,35.94
2018-06-19T09:53:14.460Z,35.64
2018-06-19T09:54:24.020Z,35.45
2018-06-19T09:55:34.204Z,35.46
2018-06-19T09:56:44.286Z,35.47
2018-06-19T09:57:54.371Z,35.35
2018-06-19T09:59:04.417Z,35.53
2018-06-19T10:00:14.819Z,35.4
2018-06-19T10:01:24.901Z,35.38
2018-06-19T10:02:35.005Z,35.15
2018-06-19T10:03:45.099Z,34.97
2018-06-19T10:04:54.963Z,34.9
2018-06-19T10:06:05.068Z,34.78
2018-06-19T10:07:15.283Z,34.9
2018-06-19T10:08:25.371Z,35.05
2018-06-19T10:09:35.450Z,35.23
2018-06-19T10:10:45.569Z,35.4
2018-06-19T10:11:55.821Z,35.31
2018-06-19T10:13:06.244Z,34.93
2018-06-19T10:14:16.077Z,34.43
2018-06-19T10:15:26.174Z,34.08
2018-06-19T10:16:36.244Z,33.74
2018-06-19T10:17:46.341Z,33.63
2018-06-19T10:18:56.426Z,33.55
2018-06-19T10:20:06.535Z,33.8
2018-06-19T10:21:16.631Z,34.18
2018-06-19T10:22:26.714Z,34.77
2018-06-19T10:23:36.546Z,35.08
2018-06-19T10:24:46.641Z,35.38
2018-06-19T10:25:56.730Z,35.42
2018-06-19T10:27:06.562Z,35.35
2018-06-19T10:28:16.396Z,35.33
2018-06-19T10:29:26.470Z,35.18
2018-06-19T10:30:36.398Z,34.93
2018-06-19T10:31:46.500Z,34.66
2018-06-19T10:32:56.579Z,34.55
2018-06-19T10:34:06.139Z,34.46
2018-06-19T10:35:16.242Z,34.55
2018-06-19T10:36:26.344Z,34.86
2018-06-19T10:37:36.150Z,34.94
2018-06-19T10:38:45.982Z,35.11
2018-06-19T10:39:55.806Z,35.23
2018-06-19T10:41:05.993Z,35.34
2018-06-19T10:42:16.148Z,35.49
2018-06-19T10:43:26.234Z,35.67
2018-06-19T10:44:36.332Z,35.42
2018-06-19T10:45:46.191Z,35.28
2018-06-19T10:46:56.366Z,35.34
2018-06-19T10:48:06.466Z,35.33
2018-06-19T10:49:16.554Z,35.26
2018-06-19T10:50:26.659Z,35.23
2018-06-19T10:51:36.502Z,35.21
2018-06-19T10:52:46.749Z,34.67
2018-06-19T10:53:56.680Z,34.54
2018-06-19T10:55:06.273Z,34.11
2018-06-19T10:56:16.358Z,33.62
2018-06-19T10:57:26.202Z,33.32
2018-06-19T10:58:36.324Z,33.12
2018-06-19T10:59:46.460Z,33.41
2018-06-19T11:00:56.570Z,33.69
2018-06-19T11:02:06.658Z,33.9
2018-06-19T11:03:16.493Z,34.1
2018-06-19T11:04:26.327Z,33.87
2018-06-19T11:05:36.464Z,33.85
2018-06-19T11:06:46.571Z,34.17
2018-06-19T11:07:56.784Z,34.33
2018-06-19T11:09:06.610Z,34.34
2018-06-19T11:10:16.684Z,34.48
2018-06-19T11:11:26.505Z,34.66
2018-06-19T11:12:36.078Z,34.86
2018-06-19T11:13:46.205Z,35.05
2018-06-19T11:14:56.239Z,35.4
2018-06-19T11:16:06.317Z,35.61
2018-06-19T11:17:16.426Z,35.65
2018-06-19T11:18:26.528Z,36.09
2018-06-19T11:19:36.629Z,36.34
2018-06-19T11:20:46.445Z,36.49
2018-06-19T11:21:56.561Z,36.73
2018-06-19T11:23:06.660Z,36.61
2018-06-19T11:24:16.484Z,36.41
2018-06-19T11:25:26.587Z,36.41
2018-06-19T11:26:36.714Z,36.3
2018-06-19T11:27:46.800Z,36.18
2018-06-19T11:28:56.986Z,36.18
2018-06-19T11:30:07.333Z,36.08
2018-06-19T11:31:17.157Z,35.9
2018-06-19T11:32:26.998Z,35.61
2018-06-19T11:33:37.088Z,35.57
2018-06-19T11:34:47.232Z,35.45
2018-06-19T11:35:57.342Z,35.4
2018-06-19T11:37:07.443Z,35.35
2018-06-19T11:38:17.290Z,35.27
2018-06-19T11:39:27.416Z,35.28
2018-06-19T11:40:37.524Z,35.26
2018-06-19T11:41:47.336Z,35.57
2018-06-19T11:42:57.433Z,35.82
2018-06-19T11:44:07.284Z,35.84
2018-06-19T11:45:17.419Z,35.64
2018-06-19T11:46:27.240Z,35.6
2018-06-19T11:47:43.981Z,35.5
2018-06-19T11:49:15.607Z,35.4
2018-06-19T11:50:25.605Z,35.26
2018-06-19T11:51:35.686Z,34.9
2018-06-19T11:52:45.780Z,34.59
2018-06-19T11:53:55.854Z,34.27
2018-06-19T11:55:05.920Z,34.11
2018-06-19T11:56:15.767Z,34.22
2018-06-19T11:57:25.853Z,34.37
2018-06-19T11:58:35.963Z,34.48
2018-06-19T11:59:45.857Z,34.63
2018-06-19T12:00:55.957Z,34.56
2018-06-19T12:02:06.117Z,34.54
2018-06-19T12:03:16.228Z,34.63
2018-06-19T12:04:26.048Z,34.83
2018-06-19T12:05:35.893Z,35.06
2018-06-19T12:06:46.097Z,35.33
2018-06-19T12:07:56.372Z,35.46
2018-06-19T12:09:06.686Z,35.5
2018-06-19T12:10:16.811Z,35.69
2018-06-19T12:11:26.965Z,35.77
2018-06-19T12:12:37.040Z,36.06
2018-06-19T12:13:47.126Z,35.94
2018-06-19T12:14:57.239Z,35.86
2018-06-19T12:16:07.172Z,35.64
2018-06-19T12:17:17.316Z,35.45
2018-06-19T12:18:27.442Z,35.55
2018-06-19T12:19:37.594Z,35.33
2018-06-19T12:20:47.690Z,35.06
2018-06-19T12:21:57.811Z,34.75
2018-06-19T12:23:07.904Z,34.43
2018-06-19T12:24:18.006Z,34.21
2018-06-19T12:25:27.878Z,34.1
2018-06-19T12:26:37.994Z,33.99
2018-06-19T12:27:47.841Z,33.9
2018-06-19T12:28:57.925Z,33.92
2018-06-19T12:30:08.014Z,34.05
2018-06-19T12:31:18.099Z,34.81
2018-06-19T12:32:28.248Z,35.27
2018-06-19T12:33:38.119Z,35.67
2018-06-19T12:34:47.976Z,36.06
2018-06-19T12:35:58.092Z,36.26
2018-06-19T12:37:08.274Z,36.52
2018-06-19T12:38:18.385Z,36.75
2018-06-19T12:39:28.530Z,36.81
2018-06-19T12:40:38.627Z,36.92
2018-06-19T12:41:48.755Z,36.74
2018-06-19T12:42:58.780Z,36.41
2018-06-19T12:44:09.065Z,35.96
2018-06-19T12:45:18.908Z,35.58
2018-06-19T12:46:29.274Z,35.34
2018-06-19T12:47:39.448Z,35.11
2018-06-19T12:48:49.528Z,35.26
2018-06-19T12:49:59.504Z,35.39
2018-06-19T12:51:09.882Z,35.12
2018-06-19T12:52:19.718Z,34.81
2018-06-19T12:53:29.285Z,34.93
2018-06-19T12:54:39.421Z,35.12
2018-06-19T12:55:49.531Z,35.28
2018-06-19T12:56:59.649Z,35.09
2018-06-19T12:58:09.751Z,34.58
2018-06-19T12:59:19.826Z,34.4
2018-06-19T13:00:29.949Z,33.97
2018-06-19T13:01:39.767Z,33.68
2018-06-19T13:02:49.876Z,33.75
2018-06-19T13:03:59.961Z,34
2018-06-19T13:05:10.049Z,34.1
2018-06-19T13:06:20.180Z,34.29
2018-06-19T13:07:30.270Z,33.9
2018-06-19T13:08:40.389Z,33.59
2018-06-19T13:09:50.225Z,33.26
2018-06-19T13:11:00.317Z,33.05
2018-06-19T13:12:10.540Z,32.8
2018-06-19T13:13:20.631Z,32.94
2018-06-19T13:14:30.723Z,32.64
2018-06-19T13:15:40.820Z,32.64
2018-06-19T13:16:50.919Z,32.87
2018-06-19T13:18:00.750Z,33.12
2018-06-19T13:19:10.857Z,33.32
2018-06-19T13:20:20.699Z,33.5
2018-06-19T13:21:30.536Z,33.62
2018-06-19T13:22:40.620Z,33.84
2018-06-19T13:23:50.904Z,34.17
2018-06-19T13:25:01.000Z,34.34
2018-06-19T13:26:11.099Z,34.52
2018-06-19T13:27:21.204Z,34.83
2018-06-19T13:28:31.305Z,35.09
2018-06-19T13:29:41.453Z,35.45
2018-06-19T13:30:51.274Z,35.82
2018-06-19T13:32:01.352Z,36.08
2018-06-19T13:33:11.438Z,36.32
2018-06-19T13:34:21.559Z,36.4
2018-06-19T13:35:31.876Z,36.61
2018-06-19T13:36:41.980Z,36.55
2018-06-19T13:37:52.085Z,36.52
2018-06-19T13:39:02.187Z,36.43
2018-06-19T13:40:12.290Z,36.22
2018-06-19T13:41:22.407Z,35.94
2018-06-19T13:42:32.504Z,35.82
2018-06-19T13:43:42.604Z,35.57
2018-06-19T13:44:52.184Z,35.45
2018-06-19T13:46:02.276Z,35.24
2018-06-19T13:47:12.140Z,35.23
2018-06-19T13:48:22.223Z,35.15
2018-06-19T13:49:32.453Z,35.15
2018-06-19T13:50:42.556Z,35.06
2018-06-19T13:51:52.663Z,35.05
2018-06-19T13:53:02.759Z,35.09
2018-06-19T13:54:12.824Z,35.02
2018-06-19T13:55:22.943Z,35.26
2018-06-19T13:56:33.018Z,35.38
2018-06-19T13:57:42.865Z,35.52
2018-06-19T13:58:52.706Z,35.69
2018-06-19T14:00:02.263Z,35.96
2018-06-19T14:01:12.351Z,36.24
2018-06-19T14:02:22.453Z,36.3
2018-06-19T14:03:32.552Z,36.36
2018-06-19T14:04:42.368Z,36.33
2018-06-19T14:05:52.493Z,36.19
2018-06-19T14:07:02.586Z,36.14
2018-06-19T14:08:12.981Z,35.98
2018-06-19T14:09:23.280Z,35.87
2018-06-19T14:10:33.449Z,35.72
2018-06-19T14:11:43.541Z,35.55
2018-06-19T14:12:53.632Z,35.57
2018-06-19T14:14:03.560Z,35.46
2018-06-19T14:15:13.400Z,35.5
2018-06-19T14:16:23.294Z,35.5
2018-06-19T14:17:33.148Z,35.31
2018-06-19T14:18:43.352Z,35.33
2018-06-19T14:19:53.817Z,35.06
2018-06-19T14:21:03.984Z,35.04
2018-06-19T14:22:14.171Z,35.05
2018-06-19T14:23:24.268Z,35.02
2018-06-19T14:24:34.368Z,35.15
2018-06-19T14:25:44.500Z,35.08
2018-06-19T14:26:54.639Z,35.21
2018-06-19T14:28:04.775Z,35.2
2018-06-19T14:29:14.674Z,35.26
2018-06-19T14:30:24.774Z,35.12
2018-06-19T14:31:34.905Z,35.24
2018-06-19T14:32:45.027Z,35.31
2018-06-19T14:33:55.131Z,35.4
2018-06-19T14:35:05.291Z,35.5
2018-06-19T14:36:15.386Z,35.4
2018-06-19T14:37:25.220Z,35.4
2018-06-19T14:38:35.286Z,35.35
2018-06-19T14:39:45.405Z,35.46
2018-06-19T14:40:55.564Z,35.49
2018-06-19T14:42:05.390Z,35.42
2018-06-19T14:43:15.487Z,35.45
2018-06-19T14:44:25.319Z,35.6
2018-06-19T14:45:34.916Z,35.62
2018-06-19T14:46:44.848Z,35.79
2018-06-19T14:47:55.109Z,35.76
2018-06-19T14:49:04.933Z,35.69
2018-06-19T14:50:15.043Z,35.57
2018-06-19T14:51:25.168Z,35.46
2018-06-19T14:52:35.261Z,35.4
2018-06-19T14:53:45.356Z,35.31
2018-06-19T14:54:55.473Z,35.39
2018-06-19T14:56:05.306Z,35.27
2018-06-19T14:57:15.404Z,35.18
2018-06-19T14:58:25.766Z,35.13
2018-06-19T14:59:35.883Z,35.15
2018-06-19T15:00:46.281Z,35.05
2018-06-19T15:01:56.416Z,34.96
2018-06-19T15:03:06.512Z,34.83
2018-06-19T15:04:16.092Z,34.69
2018-06-19T15:05:26.209Z,34.61
2018-06-19T15:06:36.103Z,34.56
2018-06-19T15:07:46.203Z,34.39
2018-06-19T15:08:56.333Z,34.39
2018-06-19T15:10:06.866Z,34.34
2018-06-19T15:11:16.982Z,34.22
2018-06-19T15:12:26.879Z,34.18
2018-06-19T15:13:36.987Z,34.17
2018-06-19T15:14:46.824Z,34.24
2018-06-19T15:15:56.919Z,34.19
2018-06-19T15:17:07.010Z,34.21
2018-06-19T15:18:17.175Z,34.18
2018-06-19T15:19:27.333Z,34.24
2018-06-19T15:20:37.430Z,34.29
2018-06-19T15:21:47.530Z,34.21
2018-06-19T15:22:57.623Z,34.34
2018-06-19T15:24:07.587Z,34.19
2018-06-19T15:25:17.219Z,34.19
2018-06-19T15:26:27.319Z,34.21
2018-06-19T15:27:36.922Z,34.02
2018-06-19T15:28:47.018Z,33.96
2018-06-19T15:29:57.102Z,33.46
2018-06-19T15:31:07.220Z,33.32
2018-06-19T15:32:17.313Z,33.34
2018-06-19T15:33:27.431Z,33.36
2018-06-19T15:34:37.287Z,33.37
2018-06-19T15:35:47.110Z,33.36
2018-06-19T15:36:56.729Z,33.37
2018-06-19T15:38:06.836Z,33.36